createdAt,value
2023-04-09T00:05:55.686Z,4.50
2023-04-09T00:16:55.582Z,4.00
2023-04-09T00:27:55.448Z,4.20
2023-04-09T00:38:55.312Z,4.30
2023-04-09T00:49:55.206Z,5.80
2023-04-09T01:00:55.087Z,4.70
2023-04-09T01:11:54.946Z,6.40
2023-04-09T01:22:54.820Z,6.10
2023-04-09T01:33:54.701Z,5.90
2023-04-09T01:44:54.560Z,7.70
2023-04-09T01:55:54.436Z,6.50
2023-04-09T02:06:54.330Z,6.20
2023-04-09T02:17:54.281Z,6.20
2023-04-09T02:28:54.437Z,5.70
2023-04-09T02:39:53.951Z,6.00
2023-04-09T02:50:53.828Z,7.80
2023-04-09T03:01:53.709Z,7.80
2023-04-09T03:12:53.568Z,6.90
2023-04-09T03:23:53.437Z,7.50
2023-04-09T03:34:53.334Z,7.00
2023-04-09T03:45:53.204Z,8.30
2023-04-09T03:56:53.063Z,7.70
2023-04-09T04:07:52.939Z,8.20
2023-04-09T04:18:53.044Z,8.80
2023-04-09T04:29:52.717Z,9.30
2023-04-09T04:40:52.587Z,9.10
2023-04-09T04:51:52.440Z,8.60
2023-04-09T05:02:52.405Z,8.10
2023-04-09T05:13:52.201Z,8.30
2023-04-09T05:24:52.076Z,8.80
2023-04-09T05:35:51.975Z,9.60
2023-04-09T05:46:51.827Z,8.20
2023-04-09T05:57:51.696Z,8.20
2023-04-09T06:08:51.588Z,8.50
2023-04-09T06:19:51.450Z,9.20
2023-04-09T06:30:51.404Z,14.00
2023-04-09T06:41:51.211Z,8.70
2023-04-09T06:52:51.097Z,11.50
2023-04-09T07:03:51.168Z,10.50
2023-04-09T07:14:50.825Z,10.10
2023-04-09T07:25:50.703Z,11.00
2023-04-09T07:36:50.565Z,11.10
2023-04-09T07:47:50.568Z,10.50
2023-04-09T07:58:50.575Z,9.40
2023-04-09T08:09:50.217Z,11.00
2023-04-09T08:20:50.073Z,10.30
2023-04-09T08:31:49.995Z,10.40
2023-04-09T08:42:49.825Z,9.80
2023-04-09T08:53:49.739Z,8.00
2023-04-09T09:04:49.582Z,7.90
2023-04-09T09:15:49.480Z,10.00
2023-04-09T09:26:49.327Z,9.40
2023-04-09T09:37:49.230Z,7.10
2023-04-09T09:48:49.093Z,7.50
2023-04-09T09:59:48.955Z,7.70
2023-04-09T10:10:48.849Z,6.90
2023-04-09T10:21:48.711Z,7.20
2023-04-09T10:32:48.618Z,5.80
2023-04-09T10:43:48.495Z,6.70
2023-04-09T10:54:48.343Z,6.30
2023-04-09T11:05:48.210Z,7.20
2023-04-09T11:16:48.159Z,6.90
2023-04-09T11:27:47.971Z,5.50
2023-04-09T11:38:47.847Z,6.20
2023-04-09T11:49:47.711Z,4.80
2023-04-09T12:00:47.574Z,5.20
2023-04-09T12:11:47.460Z,5.10
2023-04-09T12:22:47.329Z,4.80
2023-04-09T12:33:47.223Z,4.70
2023-04-09T12:44:47.086Z,4.30
2023-04-09T12:55:46.988Z,5.20
2023-04-09T13:06:46.832Z,4.30
2023-04-09T13:17:46.738Z,4.20
2023-04-09T13:28:46.606Z,4.30
2023-04-09T13:39:46.466Z,4.20
2023-04-09T13:50:46.326Z,4.10
2023-04-09T14:01:46.335Z,4.10
2023-04-09T14:12:46.081Z,4.10
2023-04-09T14:23:45.973Z,3.60
2023-04-09T14:34:45.843Z,2.20
2023-04-09T14:45:45.698Z,2.50
2023-04-09T14:56:45.575Z,2.90
2023-04-09T15:07:45.452Z,2.90
2023-04-09T15:18:45.333Z,2.70
2023-04-09T15:29:46.994Z,3.60
2023-04-09T15:40:45.072Z,3.10
2023-04-09T15:51:44.938Z,2.70
2023-04-09T16:02:44.810Z,2.50
2023-04-09T16:13:44.688Z,3.20
2023-04-09T16:24:44.677Z,2.70
2023-04-09T16:35:44.524Z,2.80
2023-04-09T16:46:44.318Z,3.60
2023-04-09T16:57:44.178Z,3.60
2023-04-09T17:08:44.053Z,2.80
2023-04-09T17:19:43.920Z,2.80
2023-04-09T17:30:43.853Z,3.20
2023-04-09T17:41:43.673Z,3.70
2023-04-09T17:52:43.552Z,3.40
2023-04-09T18:03:43.681Z,3.80
2023-04-09T18:14:43.308Z,2.90
2023-04-09T18:25:43.196Z,2.90
2023-04-09T18:36:43.072Z,4.00
2023-04-09T18:47:42.981Z,3.70
2023-04-09T18:58:42.812Z,3.50
2023-04-09T19:09:42.682Z,4.30
2023-04-09T19:20:42.572Z,4.80
2023-04-09T19:31:42.461Z,4.50
2023-04-09T19:42:42.324Z,3.80
2023-04-09T19:53:42.181Z,4.30
2023-04-09T20:04:42.061Z,5.30
2023-04-09T20:15:41.942Z,5.50
2023-04-09T20:26:41.819Z,4.70
2023-04-09T20:37:41.680Z,5.00
2023-04-09T20:48:41.568Z,5.90
2023-04-09T20:59:41.428Z,4.80
2023-04-09T21:10:41.423Z,4.40
2023-04-09T21:21:41.179Z,4.60
2023-04-09T21:32:41.145Z,4.50
2023-04-09T21:43:40.936Z,5.10
2023-04-09T21:54:40.819Z,5.40
2023-04-09T22:05:40.685Z,5.70
2023-04-09T22:16:40.567Z,5.40
2023-04-09T22:27:40.434Z,6.40
2023-04-09T22:38:40.324Z,5.50
2023-04-09T22:49:40.191Z,6.10
2023-04-09T23:00:40.070Z,6.20
2023-04-09T23:11:39.927Z,6.70
2023-04-09T23:22:39.804Z,5.60
2023-04-09T23:33:39.696Z,9.00
2023-04-09T23:44:39.565Z,12.90
2023-04-09T23:55:39.441Z,10.00
